Terminal Aerodrome Forecast
Issued by NWS

Home | Current Version | Previous Version | Graphics & Text | Print | Product List | Glossary On
Versions: 1 2 3 4 5 6 7 8 9 10 11 12 13 14 15 16 17 18 19 20 21
000
FTUS43 KBIS 251400 AAA
TAFJMS
TAF AMD
KJMS 251424Z 2514/2612 32024G37KT P6SM BKN025
     FM252100 33023G28KT P6SM SCT050
     FM260100 33014KT P6SM SCT045 SCT060=

USA.gov is the U.S. government's official web portal to all federal, state and local government web resources and services.